sensor_id;sensor_type;location;lat;lon;timestamp;pressure;altitude;pressure_sealevel;temperature;humidity
65832;BME280;52593;42.648;23.332;2022-10-31T00:00:21;95022.03;;;14.05;51.26
65832;BME280;52593;42.648;23.332;2022-10-31T00:02:47;95022.19;;;13.97;51.36
65832;BME280;52593;42.648;23.332;2022-10-31T00:05:12;95022.22;;;14.03;51.60
65832;BME280;52593;42.648;23.332;2022-10-31T00:07:37;95017.03;;;14.02;51.64
65832;BME280;52593;42.648;23.332;2022-10-31T00:10:03;95018.44;;;13.98;51.94
65832;BME280;52593;42.648;23.332;2022-10-31T00:12:29;95019.69;;;13.95;51.80
65832;BME280;52593;42.648;23.332;2022-10-31T00:14:54;95016.53;;;13.91;51.95
65832;BME280;52593;42.648;23.332;2022-10-31T00:17:20;95011.91;;;13.85;52.22
65832;BME280;52593;42.648;23.332;2022-10-31T00:19:45;95007.31;;;13.79;52.63
65832;BME280;52593;42.648;23.332;2022-10-31T00:22:10;95019.78;;;13.87;52.44
65832;BME280;52593;42.648;23.332;2022-10-31T00:24:36;95017.28;;;13.85;52.34
65832;BME280;52593;42.648;23.332;2022-10-31T00:27:01;95013.50;;;13.80;52.57
65832;BME280;52593;42.648;23.332;2022-10-31T00:29:26;95014.75;;;13.77;52.74
65832;BME280;52593;42.648;23.332;2022-10-31T00:31:52;95009.75;;;13.74;52.86
65832;BME280;52593;42.648;23.332;2022-10-31T00:34:18;95010.38;;;13.76;53.10
65832;BME280;52593;42.648;23.332;2022-10-31T00:36:43;95014.53;;;13.79;53.28
65832;BME280;52593;42.648;23.332;2022-10-31T00:39:09;95011.78;;;13.72;53.38
65832;BME280;52593;42.648;23.332;2022-10-31T00:41:34;95005.63;;;13.78;53.33
65832;BME280;52593;42.648;23.332;2022-10-31T00:44:00;95008.50;;;13.77;53.18
65832;BME280;52593;42.648;23.332;2022-10-31T00:46:25;95004.09;;;13.69;53.68
65832;BME280;52593;42.648;23.332;2022-10-31T00:48:50;95003.66;;;13.65;53.58
65832;BME280;52593;42.648;23.332;2022-10-31T00:51:16;95004.28;;;13.67;53.80
65832;BME280;52593;42.648;23.332;2022-10-31T00:53:41;95002.16;;;13.63;54.00
65832;BME280;52593;42.648;23.332;2022-10-31T00:56:06;95005.72;;;13.63;53.81
65832;BME280;52593;42.648;23.332;2022-10-31T00:58:32;95014.22;;;13.67;53.91
65832;BME280;52593;42.648;23.332;2022-10-31T01:00:57;95012.53;;;13.66;53.68
65832;BME280;52593;42.648;23.332;2022-10-31T01:03:25;95007.69;;;13.54;54.45
65832;BME280;52593;42.648;23.332;2022-10-31T01:08:22;95007.03;;;13.52;54.74
65832;BME280;52593;42.648;23.332;2022-10-31T01:10:58;95005.91;;;13.62;54.34
65832;BME280;52593;42.648;23.332;2022-10-31T01:13:24;95006.09;;;13.60;54.43
65832;BME280;52593;42.648;23.332;2022-10-31T01:15:54;95025.69;;;13.54;54.48
65832;BME280;52593;42.648;23.332;2022-10-31T01:18:19;95024.75;;;13.47;55.00
65832;BME280;52593;42.648;23.332;2022-10-31T01:20:45;95014.06;;;13.53;54.76
65832;BME280;52593;42.648;23.332;2022-10-31T01:23:10;95023.63;;;13.56;54.66
65832;BME280;52593;42.648;23.332;2022-10-31T01:25:35;95027.31;;;13.55;54.82
65832;BME280;52593;42.648;23.332;2022-10-31T01:28:01;95026.06;;;13.51;54.95
65832;BME280;52593;42.648;23.332;2022-10-31T01:30:26;95037.25;;;13.54;54.98
65832;BME280;52593;42.648;23.332;2022-10-31T01:32:52;95034.38;;;13.56;55.20
65832;BME280;52593;42.648;23.332;2022-10-31T01:35:17;95034.81;;;13.60;55.26
65832;BME280;52593;42.648;23.332;2022-10-31T01:37:42;95029.06;;;13.63;55.40
65832;BME280;52593;42.648;23.332;2022-10-31T01:40:08;95027.28;;;13.70;55.62
65832;BME280;52593;42.648;23.332;2022-10-31T01:42:34;95033.47;;;13.70;55.90
65832;BME280;52593;42.648;23.332;2022-10-31T01:45:00;95033.41;;;13.64;55.93
65832;BME280;52593;42.648;23.332;2022-10-31T01:47:46;95040.66;;;13.63;56.25
65832;BME280;52593;42.648;23.332;2022-10-31T01:50:20;95036.69;;;13.59;56.36
65832;BME280;52593;42.648;23.332;2022-10-31T01:52:51;95033.03;;;13.67;56.73
65832;BME280;52593;42.648;23.332;2022-10-31T01:55:25;95039.53;;;13.72;56.78
65832;BME280;52593;42.648;23.332;2022-10-31T01:57:53;95037.47;;;13.74;56.57
65832;BME280;52593;42.648;23.332;2022-10-31T02:00:21;95042.25;;;13.79;56.42
65832;BME280;52593;42.648;23.332;2022-10-31T02:02:48;95038.19;;;13.83;56.34
65832;BME280;52593;42.648;23.332;2022-10-31T02:05:18;95025.56;;;13.84;56.59
65832;BME280;52593;42.648;23.332;2022-10-31T02:10:30;95021.84;;;13.85;56.65
65832;BME280;52593;42.648;23.332;2022-10-31T02:12:58;95017.38;;;13.92;56.58
65832;BME280;52593;42.648;23.332;2022-10-31T02:15:24;95012.38;;;13.89;56.55
65832;BME280;52593;42.648;23.332;2022-10-31T02:17:51;95011.09;;;13.85;57.01
65832;BME280;52593;42.648;23.332;2022-10-31T02:20:19;95015.19;;;13.81;57.14
65832;BME280;52593;42.648;23.332;2022-10-31T02:26:13;95027.22;;;13.85;57.31
65832;BME280;52593;42.648;23.332;2022-10-31T02:31:17;95028.19;;;13.77;57.59
65832;BME280;52593;42.648;23.332;2022-10-31T02:36:23;95051.84;;;13.67;57.83
65832;BME280;52593;42.648;23.332;2022-10-31T02:39:01;95045.19;;;13.63;57.93
65832;BME280;52593;42.648;23.332;2022-10-31T02:41:40;95055.31;;;13.61;58.33
65832;BME280;52593;42.648;23.332;2022-10-31T02:44:45;95057.00;;;13.62;58.28
65832;BME280;52593;42.648;23.332;2022-10-31T02:47:16;95060.31;;;13.64;58.33
65832;BME280;52593;42.648;23.332;2022-10-31T02:49:50;95060.94;;;13.66;58.26
65832;BME280;52593;42.648;23.332;2022-10-31T02:52:20;95065.25;;;13.60;58.51
65832;BME280;52593;42.648;23.332;2022-10-31T02:54:47;95062.66;;;13.52;58.98
65832;BME280;52593;42.648;23.332;2022-10-31T02:57:14;95054.13;;;13.48;59.08
65832;BME280;52593;42.648;23.332;2022-10-31T02:59:46;95062.84;;;13.50;59.40
65832;BME280;52593;42.648;23.332;2022-10-31T03:05:27;95063.59;;;13.44;59.26
65832;BME280;52593;42.648;23.332;2022-10-31T03:08:32;95068.72;;;13.39;59.49
65832;BME280;52593;42.648;23.332;2022-10-31T03:11:03;95068.53;;;13.41;59.80
65832;BME280;52593;42.648;23.332;2022-10-31T03:16:17;95070.19;;;13.42;59.86
65832;BME280;52593;42.648;23.332;2022-10-31T03:21:25;95062.56;;;13.30;60.27
65832;BME280;52593;42.648;23.332;2022-10-31T03:23:53;95065.44;;;13.29;60.08
65832;BME280;52593;42.648;23.332;2022-10-31T03:26:21;95069.63;;;13.16;60.65
65832;BME280;52593;42.648;23.332;2022-10-31T03:28:55;95072.69;;;13.13;60.63
65832;BME280;52593;42.648;23.332;2022-10-31T03:31:26;95070.50;;;13.17;60.77
65832;BME280;52593;42.648;23.332;2022-10-31T03:33:56;95070.81;;;13.14;60.54
65832;BME280;52593;42.648;23.332;2022-10-31T03:36:23;95080.84;;;13.05;61.22
65832;BME280;52593;42.648;23.332;2022-10-31T03:38:49;95076.88;;;13.01;61.33
65832;BME280;52593;42.648;23.332;2022-10-31T03:41:21;95073.69;;;13.12;61.50
65832;BME280;52593;42.648;23.332;2022-10-31T03:44:01;95086.59;;;13.02;62.05
65832;BME280;52593;42.648;23.332;2022-10-31T03:46:28;95093.53;;;12.96;62.58
65832;BME280;52593;42.648;23.332;2022-10-31T03:48:54;95083.28;;;12.85;62.81
65832;BME280;52593;42.648;23.332;2022-10-31T03:51:22;95087.03;;;12.91;62.30
65832;BME280;52593;42.648;23.332;2022-10-31T03:54:08;95094.84;;;12.85;62.09
65832;BME280;52593;42.648;23.332;2022-10-31T03:56:41;95088.97;;;12.67;62.71
65832;BME280;52593;42.648;23.332;2022-10-31T03:59:19;95091.28;;;12.55;63.49
65832;BME280;52593;42.648;23.332;2022-10-31T04:01:51;95091.53;;;12.45;63.61
65832;BME280;52593;42.648;23.332;2022-10-31T04:04:19;95098.38;;;12.33;64.27
65832;BME280;52593;42.648;23.332;2022-10-31T04:06:46;95097.59;;;12.24;65.00
65832;BME280;52593;42.648;23.332;2022-10-31T04:09:13;95099.31;;;12.17;65.04
65832;BME280;52593;42.648;23.332;2022-10-31T04:11:46;95092.66;;;12.13;65.07
65832;BME280;52593;42.648;23.332;2022-10-31T04:14:13;95102.91;;;12.09;65.27
65832;BME280;52593;42.648;23.332;2022-10-31T04:16:41;95099.75;;;12.06;65.41
65832;BME280;52593;42.648;23.332;2022-10-31T04:19:07;95099.94;;;12.04;65.50
65832;BME280;52593;42.648;23.332;2022-10-31T04:21:33;95103.16;;;12.00;65.87
65832;BME280;52593;42.648;23.332;2022-10-31T04:23:58;95111.19;;;12.00;65.83
65832;BME280;52593;42.648;23.332;2022-10-31T04:26:24;95107.00;;;11.97;66.36
65832;BME280;52593;42.648;23.332;2022-10-31T04:28:50;95114.06;;;11.98;66.21
65832;BME280;52593;42.648;23.332;2022-10-31T04:31:15;95121.75;;;12.01;66.21
65832;BME280;52593;42.648;23.332;2022-10-31T04:33:41;95113.22;;;11.98;66.33
65832;BME280;52593;42.648;23.332;2022-10-31T04:36:06;95107.31;;;12.02;66.28
65832;BME280;52593;42.648;23.332;2022-10-31T04:38:32;95116.56;;;12.00;66.68
65832;BME280;52593;42.648;23.332;2022-10-31T04:40:57;95116.56;;;12.00;66.49
65832;BME280;52593;42.648;23.332;2022-10-31T04:43:23;95111.19;;;12.00;66.55
65832;BME280;52593;42.648;23.332;2022-10-31T04:45:48;95120.91;;;12.01;66.89
65832;BME280;52593;42.648;23.332;2022-10-31T04:48:14;95120.91;;;12.01;67.08
65832;BME280;52593;42.648;23.332;2022-10-31T04:50:39;95113.69;;;12.01;66.80
65832;BME280;52593;42.648;23.332;2022-10-31T04:53:05;95115.19;;;12.04;66.76
65832;BME280;52593;42.648;23.332;2022-10-31T04:55:30;95119.41;;;11.98;66.58
65832;BME280;52593;42.648;23.332;2022-10-31T04:57:56;95123.78;;;11.99;66.31
65832;BME280;52593;42.648;23.332;2022-10-31T05:00:22;95129.31;;;11.98;67.42
65832;BME280;52593;42.648;23.332;2022-10-31T05:02:49;95126.47;;;11.99;67.22
65832;BME280;52593;42.648;23.332;2022-10-31T05:05:16;95134.69;;;11.98;67.29
65832;BME280;52593;42.648;23.332;2022-10-31T05:07:43;95136.50;;;11.97;67.17
65832;BME280;52593;42.648;23.332;2022-10-31T05:10:14;95139.53;;;11.94;67.47
65832;BME280;52593;42.648;23.332;2022-10-31T05:12:57;95137.91;;;11.93;67.60
65832;BME280;52593;42.648;23.332;2022-10-31T05:15:24;95135.69;;;11.97;67.45
65832;BME280;52593;42.648;23.332;2022-10-31T05:17:51;95138.19;;;11.98;66.98
65832;BME280;52593;42.648;23.332;2022-10-31T05:20:18;95136.38;;;11.90;67.49
65832;BME280;52593;42.648;23.332;2022-10-31T05:22:46;95143.91;;;11.95;67.53
65832;BME280;52593;42.648;23.332;2022-10-31T05:25:12;95143.41;;;11.91;67.66
65832;BME280;52593;42.648;23.332;2022-10-31T05:27:39;95153.63;;;11.96;67.33
65832;BME280;52593;42.648;23.332;2022-10-31T05:30:05;95150.31;;;11.86;67.55
65832;BME280;52593;42.648;23.332;2022-10-31T05:32:43;95150.91;;;11.65;68.43
65832;BME280;52593;42.648;23.332;2022-10-31T05:35:12;95154.47;;;11.57;69.02
65832;BME280;52593;42.648;23.332;2022-10-31T05:37:38;95152.78;;;11.56;69.23
65832;BME280;52593;42.648;23.332;2022-10-31T05:40:05;95157.44;;;11.62;69.25
65832;BME280;52593;42.648;23.332;2022-10-31T05:42:31;95155.63;;;11.63;68.83
65832;BME280;52593;42.648;23.332;2022-10-31T05:44:57;95156.09;;;11.66;68.59
65832;BME280;52593;42.648;23.332;2022-10-31T05:47:23;95160.13;;;11.62;68.97
65832;BME280;52593;42.648;23.332;2022-10-31T05:49:48;95166.69;;;11.59;69.26
65832;BME280;52593;42.648;23.332;2022-10-31T05:52:13;95160.66;;;11.57;69.28
65832;BME280;52593;42.648;23.332;2022-10-31T05:54:39;95167.22;;;11.55;69.15
65832;BME280;52593;42.648;23.332;2022-10-31T05:57:04;95164.38;;;11.56;69.08
65832;BME280;52593;42.648;23.332;2022-10-31T05:59:30;95174.06;;;11.57;69.37
65832;BME280;52593;42.648;23.332;2022-10-31T06:01:55;95184.25;;;11.62;69.72
65832;BME280;52593;42.648;23.332;2022-10-31T06:04:20;95182.09;;;11.57;70.00
65832;BME280;52593;42.648;23.332;2022-10-31T06:06:46;95186.75;;;11.64;69.49
65832;BME280;52593;42.648;23.332;2022-10-31T06:09:11;95177.41;;;11.59;70.02
65832;BME280;52593;42.648;23.332;2022-10-31T06:11:37;95185.25;;;11.69;69.88
65832;BME280;52593;42.648;23.332;2022-10-31T06:14:03;95187.25;;;11.67;70.08
65832;BME280;52593;42.648;23.332;2022-10-31T06:16:29;95188.25;;;11.66;70.05
65832;BME280;52593;42.648;23.332;2022-10-31T06:18:54;95195.97;;;11.69;70.07
65832;BME280;52593;42.648;23.332;2022-10-31T06:21:19;95195.09;;;11.77;69.70
65832;BME280;52593;42.648;23.332;2022-10-31T06:23:45;95200.25;;;11.87;69.43
65832;BME280;52593;42.648;23.332;2022-10-31T06:26:10;95199.56;;;11.93;68.67
65832;BME280;52593;42.648;23.332;2022-10-31T06:28:35;95204.34;;;12.06;68.00
65832;BME280;52593;42.648;23.332;2022-10-31T06:31:01;95219.56;;;12.13;67.74
65832;BME280;52593;42.648;23.332;2022-10-31T06:33:28;95214.50;;;12.19;67.23
65832;BME280;52593;42.648;23.332;2022-10-31T06:35:53;95216.13;;;12.28;67.85
65832;BME280;52593;42.648;23.332;2022-10-31T06:38:18;95207.25;;;12.27;67.74
65832;BME280;52593;42.648;23.332;2022-10-31T06:40:44;95211.78;;;12.27;67.88
65832;BME280;52593;42.648;23.332;2022-10-31T06:43:09;95212.72;;;12.34;66.98
65832;BME280;52593;42.648;23.332;2022-10-31T06:45:36;95221.09;;;12.39;66.42
65832;BME280;52593;42.648;23.332;2022-10-31T06:48:02;95215.41;;;12.34;66.63
65832;BME280;52593;42.648;23.332;2022-10-31T06:50:28;95218.94;;;12.35;67.53
65832;BME280;52593;42.648;23.332;2022-10-31T06:52:57;95223.44;;;12.34;67.32
65832;BME280;52593;42.648;23.332;2022-10-31T06:55:24;95212.69;;;12.42;67.44
65832;BME280;52593;42.648;23.332;2022-10-31T06:58:00;95215.47;;;12.49;66.57
65832;BME280;52593;42.648;23.332;2022-10-31T07:00:27;95218.28;;;12.56;66.42
65832;BME280;52593;42.648;23.332;2022-10-31T07:03:12;95218.13;;;12.57;66.50
65832;BME280;52593;42.648;23.332;2022-10-31T07:05:38;95225.81;;;12.60;66.42
65832;BME280;52593;42.648;23.332;2022-10-31T07:08:07;95219.47;;;12.76;65.58
65832;BME280;52593;42.648;23.332;2022-10-31T07:10:34;95214.91;;;12.77;65.77
65832;BME280;52593;42.648;23.332;2022-10-31T07:13:02;95211.00;;;12.64;66.84
65832;BME280;52593;42.648;23.332;2022-10-31T07:15:35;95213.69;;;12.64;66.99
65832;BME280;52593;42.648;23.332;2022-10-31T07:18:02;95209.72;;;12.75;67.18
65832;BME280;52593;42.648;23.332;2022-10-31T07:20:28;95214.00;;;12.84;66.21
65832;BME280;52593;42.648;23.332;2022-10-31T07:22:53;95203.31;;;12.99;65.44
65832;BME280;52593;42.648;23.332;2022-10-31T07:25:19;95207.69;;;13.00;65.21
65832;BME280;52593;42.648;23.332;2022-10-31T07:27:45;95205.25;;;13.06;65.06
65832;BME280;52593;42.648;23.332;2022-10-31T07:30:11;95198.75;;;13.00;65.62
65832;BME280;52593;42.648;23.332;2022-10-31T07:32:42;95187.00;;;13.01;66.47
65832;BME280;52593;42.648;23.332;2022-10-31T07:35:08;95188.31;;;13.05;66.09
65832;BME280;52593;42.648;23.332;2022-10-31T07:37:34;95195.09;;;13.16;65.11
65832;BME280;52593;42.648;23.332;2022-10-31T07:40:00;95196.69;;;13.25;65.08
65832;BME280;52593;42.648;23.332;2022-10-31T07:42:26;95198.94;;;13.36;64.80
65832;BME280;52593;42.648;23.332;2022-10-31T07:44:52;95195.69;;;13.41;64.82
65832;BME280;52593;42.648;23.332;2022-10-31T07:47:17;95194.19;;;13.53;64.68
65832;BME280;52593;42.648;23.332;2022-10-31T07:49:42;95197.91;;;13.67;64.03
65832;BME280;52593;42.648;23.332;2022-10-31T07:52:08;95196.06;;;13.68;64.06
65832;BME280;52593;42.648;23.332;2022-10-31T07:54:33;95195.56;;;13.79;62.93
65832;BME280;52593;42.648;23.332;2022-10-31T07:56:58;95195.94;;;13.76;63.03
65832;BME280;52593;42.648;23.332;2022-10-31T07:59:24;95202.25;;;13.83;62.65
65832;BME280;52593;42.648;23.332;2022-10-31T08:01:51;95200.59;;;13.82;63.13
65832;BME280;52593;42.648;23.332;2022-10-31T08:04:16;95204.56;;;13.86;63.28
65832;BME280;52593;42.648;23.332;2022-10-31T08:06:41;95196.94;;;13.90;63.23
65832;BME280;52593;42.648;23.332;2022-10-31T08:09:07;95199.19;;;14.01;62.68
65832;BME280;52593;42.648;23.332;2022-10-31T08:11:32;95202.50;;;14.03;62.68
65832;BME280;52593;42.648;23.332;2022-10-31T08:13:57;95196.19;;;14.33;61.62
65832;BME280;52593;42.648;23.332;2022-10-31T08:16:23;95195.69;;;14.44;60.60
65832;BME280;52593;42.648;23.332;2022-10-31T08:18:48;95196.63;;;14.36;60.51
65832;BME280;52593;42.648;23.332;2022-10-31T08:21:13;95189.59;;;14.35;60.86
65832;BME280;52593;42.648;23.332;2022-10-31T08:23:39;95203.06;;;14.57;60.32
65832;BME280;52593;42.648;23.332;2022-10-31T08:26:04;95192.38;;;14.63;60.05
65832;BME280;52593;42.648;23.332;2022-10-31T08:28:31;95201.50;;;14.62;59.90
65832;BME280;52593;42.648;23.332;2022-10-31T08:30:57;95186.88;;;14.72;59.75
65832;BME280;52593;42.648;23.332;2022-10-31T08:33:23;95192.13;;;14.80;59.28
65832;BME280;52593;42.648;23.332;2022-10-31T08:35:49;95193.03;;;14.87;59.07
65832;BME280;52593;42.648;23.332;2022-10-31T08:38:14;95187.25;;;14.90;59.26
65832;BME280;52593;42.648;23.332;2022-10-31T08:40:40;95183.38;;;15.00;59.10
65832;BME280;52593;42.648;23.332;2022-10-31T08:43:11;95187.03;;;15.20;58.18
65832;BME280;52593;42.648;23.332;2022-10-31T08:45:36;95187.03;;;15.20;58.08
65832;BME280;52593;42.648;23.332;2022-10-31T08:48:04;95181.72;;;15.27;58.05
65832;BME280;52593;42.648;23.332;2022-10-31T08:50:32;95183.47;;;15.41;57.57
65832;BME280;52593;42.648;23.332;2022-10-31T08:53:06;95186.63;;;15.51;57.48
65832;BME280;52593;42.648;23.332;2022-10-31T08:55:36;95186.19;;;15.48;58.06
65832;BME280;52593;42.648;23.332;2022-10-31T08:58:03;95185.28;;;15.69;56.71
65832;BME280;52593;42.648;23.332;2022-10-31T09:00:29;95176.06;;;15.85;55.92
65832;BME280;52593;42.648;23.332;2022-10-31T09:02:58;95184.97;;;15.85;56.05
65832;BME280;52593;42.648;23.332;2022-10-31T09:05:24;95184.78;;;15.94;56.59
65832;BME280;52593;42.648;23.332;2022-10-31T09:07:50;95180.06;;;16.02;56.36
65832;BME280;52593;42.648;23.332;2022-10-31T09:10:15;95183.63;;;16.10;55.82
65832;BME280;52593;42.648;23.332;2022-10-31T09:12:41;95179.09;;;16.30;55.70
65832;BME280;52593;42.648;23.332;2022-10-31T09:15:07;95182.28;;;16.54;54.34
65832;BME280;52593;42.648;23.332;2022-10-31T09:17:33;95172.94;;;16.70;53.84
65832;BME280;52593;42.648;23.332;2022-10-31T09:19:58;95175.84;;;16.75;54.13
65832;BME280;52593;42.648;23.332;2022-10-31T09:22:23;95175.03;;;16.81;53.76
65832;BME280;52593;42.648;23.332;2022-10-31T09:24:49;95170.47;;;16.95;53.29
65832;BME280;52593;42.648;23.332;2022-10-31T09:27:14;95166.97;;;17.21;52.15
65832;BME280;52593;42.648;23.332;2022-10-31T09:29:39;95167.56;;;17.23;52.28
65832;BME280;52593;42.648;23.332;2022-10-31T09:32:05;95164.63;;;17.32;51.90
65832;BME280;52593;42.648;23.332;2022-10-31T09:34:30;95161.50;;;17.41;51.90
65832;BME280;52593;42.648;23.332;2022-10-31T09:36:56;95161.50;;;17.48;51.49
65832;BME280;52593;42.648;23.332;2022-10-31T09:39:21;95174.16;;;17.68;51.22
65832;BME280;52593;42.648;23.332;2022-10-31T09:44:40;95162.38;;;18.07;49.95
65832;BME280;52593;42.648;23.332;2022-10-31T09:47:15;95165.00;;;18.21;49.54
65832;BME280;52593;42.648;23.332;2022-10-31T09:52:30;95168.84;;;18.45;49.13
65832;BME280;52593;42.648;23.332;2022-10-31T09:55:02;95165.63;;;18.61;48.81
65832;BME280;52593;42.648;23.332;2022-10-31T09:57:34;95151.22;;;18.93;48.25
65832;BME280;52593;42.648;23.332;2022-10-31T10:00:03;95154.16;;;19.16;46.79
65832;BME280;52593;42.648;23.332;2022-10-31T10:02:36;95153.16;;;19.11;46.46
65832;BME280;52593;42.648;23.332;2022-10-31T10:05:05;95151.38;;;19.23;46.75
65832;BME280;52593;42.648;23.332;2022-10-31T10:10:00;95135.22;;;19.72;44.83
65832;BME280;52593;42.648;23.332;2022-10-31T10:18:42;95122.56;;;20.03;42.29
65832;BME280;52593;42.648;23.332;2022-10-31T10:29:47;95115.75;;;20.12;41.85
65832;BME280;52593;42.648;23.332;2022-10-31T10:32:32;95118.19;;;20.51;41.62
65832;BME280;52593;42.648;23.332;2022-10-31T10:35:18;95112.69;;;20.69;40.54
65832;BME280;52593;42.648;23.332;2022-10-31T10:37:46;95111.41;;;20.83;40.79
65832;BME280;52593;42.648;23.332;2022-10-31T10:40:20;95100.34;;;21.09;40.20
65832;BME280;52593;42.648;23.332;2022-10-31T10:43:23;95093.09;;;21.26;39.59
65832;BME280;52593;42.648;23.332;2022-10-31T10:45:52;95098.06;;;21.29;39.00
65832;BME280;52593;42.648;23.332;2022-10-31T10:51:46;95104.72;;;21.33;40.00
65832;BME280;52593;42.648;23.332;2022-10-31T10:54:39;95095.72;;;21.57;39.52
65832;BME280;52593;42.648;23.332;2022-10-31T10:59:35;95100.44;;;21.61;38.24
65832;BME280;52593;42.648;23.332;2022-10-31T11:02:03;95105.06;;;21.49;39.17
65832;BME280;52593;42.648;23.332;2022-10-31T11:04:33;95096.19;;;21.53;39.20
65832;BME280;52593;42.648;23.332;2022-10-31T11:09:26;95092.25;;;21.73;38.56
65832;BME280;52593;42.648;23.332;2022-10-31T11:11:51;95081.69;;;21.88;38.68
65832;BME280;52593;42.648;23.332;2022-10-31T11:14:17;95087.91;;;22.01;38.23
65832;BME280;52593;42.648;23.332;2022-10-31T11:16:47;95086.47;;;22.10;37.43
65832;BME280;52593;42.648;23.332;2022-10-31T11:19:19;95084.50;;;21.94;37.89
65832;BME280;52593;42.648;23.332;2022-10-31T11:21:47;95077.22;;;21.47;37.95
65832;BME280;52593;42.648;23.332;2022-10-31T11:24:18;95079.38;;;21.57;38.04
65832;BME280;52593;42.648;23.332;2022-10-31T11:26:47;95077.13;;;21.53;38.28
65832;BME280;52593;42.648;23.332;2022-10-31T11:29:25;95074.66;;;21.52;38.25
65832;BME280;52593;42.648;23.332;2022-10-31T11:31:56;95062.50;;;21.71;38.04
65832;BME280;52593;42.648;23.332;2022-10-31T11:34:34;95060.78;;;21.94;37.94
65832;BME280;52593;42.648;23.332;2022-10-31T11:37:13;95067.63;;;22.08;37.55
65832;BME280;52593;42.648;23.332;2022-10-31T11:39:43;95062.41;;;21.66;37.61
65832;BME280;52593;42.648;23.332;2022-10-31T11:42:11;95058.44;;;21.33;38.18
65832;BME280;52593;42.648;23.332;2022-10-31T11:44:41;95052.75;;;21.35;38.49
65832;BME280;52593;42.648;23.332;2022-10-31T11:47:13;95060.31;;;21.45;38.27
65832;BME280;52593;42.648;23.332;2022-10-31T11:49:42;95060.44;;;21.50;38.64
65832;BME280;52593;42.648;23.332;2022-10-31T11:52:16;95053.09;;;21.38;38.82
65832;BME280;52593;42.648;23.332;2022-10-31T11:54:46;95049.31;;;21.51;38.43
65832;BME280;52593;42.648;23.332;2022-10-31T11:57:29;95046.28;;;21.77;37.97
65832;BME280;52593;42.648;23.332;2022-10-31T11:59:58;95044.88;;;21.74;37.85
65832;BME280;52593;42.648;23.332;2022-10-31T12:02:25;95043.91;;;21.80;37.61
65832;BME280;52593;42.648;23.332;2022-10-31T12:05:02;95037.84;;;21.90;37.57
65832;BME280;52593;42.648;23.332;2022-10-31T12:07:30;95034.19;;;22.13;37.21
65832;BME280;52593;42.648;23.332;2022-10-31T12:09:56;95030.25;;;22.21;36.91
65832;BME280;52593;42.648;23.332;2022-10-31T12:20:59;95045.34;;;22.12;37.45
65832;BME280;52593;42.648;23.332;2022-10-31T12:26:39;95044.16;;;22.07;36.95
65832;BME280;52593;42.648;23.332;2022-10-31T12:29:36;95031.78;;;21.88;37.26
65832;BME280;52593;42.648;23.332;2022-10-31T12:32:29;95034.69;;;21.81;37.58
65832;BME280;52593;42.648;23.332;2022-10-31T12:45:57;95032.00;;;22.27;37.00
65832;BME280;52593;42.648;23.332;2022-10-31T12:57:42;95014.84;;;22.94;35.84
65832;BME280;52593;42.648;23.332;2022-10-31T12:59:48;95017.03;;;23.09;35.38
65832;BME280;52593;42.648;23.332;2022-10-31T13:02:31;95027.69;;;23.11;35.00
65832;BME280;52593;42.648;23.332;2022-10-31T13:05:31;95025.34;;;23.20;34.77
65832;BME280;52593;42.648;23.332;2022-10-31T13:11:08;95031.91;;;23.19;35.03
65832;BME280;52593;42.648;23.332;2022-10-31T13:13:53;95022.38;;;22.87;35.47
65832;BME280;52593;42.648;23.332;2022-10-31T13:16:43;95026.59;;;22.78;34.95
65832;BME280;52593;42.648;23.332;2022-10-31T13:19:16;95035.03;;;22.76;34.90
65832;BME280;52593;42.648;23.332;2022-10-31T13:22:08;95029.91;;;22.80;35.22
65832;BME280;52593;42.648;23.332;2022-10-31T13:27:54;95020.31;;;22.94;35.83
65832;BME280;52593;42.648;23.332;2022-10-31T13:30:22;95024.78;;;23.18;35.55
65832;BME280;52593;42.648;23.332;2022-10-31T13:32:52;95028.38;;;23.40;35.03
65832;BME280;52593;42.648;23.332;2022-10-31T13:35:32;95025.78;;;23.95;34.46
65832;BME280;52593;42.648;23.332;2022-10-31T13:38:45;95025.28;;;24.52;33.59
65832;BME280;52593;42.648;23.332;2022-10-31T13:40:54;95026.66;;;25.20;32.40
65832;BME280;52593;42.648;23.332;2022-10-31T13:43:55;95029.66;;;25.61;31.63
65832;BME280;52593;42.648;23.332;2022-10-31T13:48:56;95022.63;;;25.86;30.93
65832;BME280;52593;42.648;23.332;2022-10-31T13:51:33;95016.53;;;26.67;29.51
65832;BME280;52593;42.648;23.332;2022-10-31T13:54:01;95021.22;;;27.08;28.98
65832;BME280;52593;42.648;23.332;2022-10-31T13:56:33;95023.41;;;27.21;28.46
65832;BME280;52593;42.648;23.332;2022-10-31T14:01:24;95025.84;;;27.54;28.29
65832;BME280;52593;42.648;23.332;2022-10-31T14:09:30;95028.91;;;27.01;28.92
65832;BME280;52593;42.648;23.332;2022-10-31T14:12:01;95036.25;;;26.49;29.51
65832;BME280;52593;42.648;23.332;2022-10-31T14:14:33;95043.75;;;25.37;30.91
65832;BME280;52593;42.648;23.332;2022-10-31T14:16:59;95038.91;;;24.74;31.74
65832;BME280;52593;42.648;23.332;2022-10-31T14:19:25;95052.00;;;24.18;33.92
65832;BME280;52593;42.648;23.332;2022-10-31T14:21:51;95039.22;;;23.79;35.14
65832;BME280;52593;42.648;23.332;2022-10-31T14:26:55;95048.84;;;23.04;36.26
65832;BME280;52593;42.648;23.332;2022-10-31T14:29:25;95051.91;;;22.73;36.98
65832;BME280;52593;42.648;23.332;2022-10-31T14:31:57;95052.13;;;22.26;37.56
65832;BME280;52593;42.648;23.332;2022-10-31T14:50:59;95051.47;;;20.36;42.93
65832;BME280;52593;42.648;23.332;2022-10-31T14:53:31;95048.00;;;20.17;44.05
65832;BME280;52593;42.648;23.332;2022-10-31T14:55:57;95060.28;;;19.89;44.36
65832;BME280;52593;42.648;23.332;2022-10-31T14:58:33;95055.16;;;19.63;44.34
65832;BME280;52593;42.648;23.332;2022-10-31T15:01:00;95063.00;;;19.52;44.93